CheckWX is a tool to help pilots better visualize weather data.  It is not intended as a substitute for an official pre-flight weather briefing.

13:05:59 UTC

YTNK TAF
Tennant Creek Airport
Tennant Creek, Australia
TAF YTNK 240628Z 2408/2420 12009KT CAVOK

May-24@
08:00 UTC

May-24 @ 08:00 UTC

May-24@
20:00 UTC

May-24 @ 20:00 UTC

TAF YTNK 240628Z 2408/2420 12009KT CAVOK
Wind
  • 120° at 9 KTS
Conditions
No significant weather
Cloud Levels
  • No significant clouds